D/T METAR WX W/SPE G/SPE TEMP DEWP FEEL
31/01/23 12:20 EGNS 311220Z 27018KT 9999 FEW030 08/01 Q1022 NOSIG 20.7mph 8°C 1°C 6.1°C
31/01/23 07:20 EGNS 310720Z 27018KT 9999 FEW025 SCT035 09/03 Q1020 NOSIG 20.7mph 9°C 3°C 7.7°C
31/01/23 06:50 EGNS 310650Z 26020KT 9999 FEW025 BKN048 09/03 Q1019 NOSIG 23.0mph 9°C 3°C 7.7°C
30/01/23 21:50 EGNS 302150Z 24016KT 9999 BKN020 BKN042 09/05 Q1022 18.4mph 9°C 5°C 8.3°C
30/01/23 12:50 EGNS 301250Z 29014KT 9999 FEW020 09/02 Q1025 NOSIG 16.1mph 9°C 2°C 7.4°C
30/01/23 11:50 EGNS 301150Z 29012KT 9999 FEW020 09/02 Q1025 NOSIG 13.8mph 9°C 2°C 7.4°C
30/01/23 11:20 EGNS 301120Z 28010KT 9999 FEW020 08/03 Q1025 NOSIG 11.5mph 8°C 3°C 6.7°C
30/01/23 10:20 EGNS 301020Z 27009KT 9999 FEW020 08/03 Q1025 NOSIG 10.4mph 8°C 3°C 6.7°C
30/01/23 09:50 EGNS 300950Z 28012KT 250V310 9999 FEW025 07/02 Q1024 NOSIG 13.8mph 7°C 2°C 5.4°C
30/01/23 07:50 EGNS 300750Z 29017KT 9999 FEW025 07/01 Q1023 NOSIG 19.6mph 7°C 1°C 5.1°C
09/01/23 06:20 EGNS 090620Z 29024G35KT 250V330 9999 FEW020 SCT040 08/03 Q0991 NOSIG 27.6mph 40.3mph 8°C 3°C 6.7°C
09/01/23 05:50 EGNS 090550Z 28023KT 250V320 9999 SCT020 07/04 Q0990 26.5mph 7°C 4°C 6.0°C
09/01/23 05:20 EGNS 090520Z 29018KT 260V330 9999 SCT022 07/03 Q0990 20.7mph 7°C 3°C 5.7°C
09/01/23 04:50 EGNS 090450Z 03018KT 250V320 9999 BKN022 07/04 Q0989 20.7mph 7°C 4°C 6.0°C
09/01/23 04:20 EGNS 090420Z 28015KT 240V310 6000 -SHRA BKN016 OVC035 07/04 Q0989 -SHRA 17.3mph 7°C 4°C 6.0°C
09/01/23 03:50 EGNS 090350Z 27018KT 240V310 6000 -SHRA BKN016 OVC024 07/04 Q0988 -SHRA 20.7mph 7°C 4°C 6.0°C
09/01/23 02:50 EGNS 090250Z 26019KT 230V300 9999 SCT018 07/04 Q0987 21.9mph 7°C 4°C 6.0°C
09/01/23 00:50 EGNS 090050Z 26019KT 230V300 9999 FEW018 07/04 Q0986 21.9mph 7°C 4°C 6.0°C
08/01/23 23:50 EGNS 082350Z 27017KT 230V300 9999 FEW018 07/04 Q0985 19.6mph 7°C 4°C 6.0°C
08/01/23 22:50 EGNS 082250Z 26016KT 240V300 9999 FEW018 07/04 Q0984 18.4mph 7°C 4°C 6.0°C
08/01/23 21:50 EGNS 082150Z 27018KT 230V300 9999 FEW018 07/05 Q0984 20.7mph 7°C 5°C 6.3°C
08/01/23 20:20 EGNS 082020Z 26017KT 9999 SCT018 07/04 Q0983 NOSIG 19.6mph 7°C 4°C 6.0°C
08/01/23 19:20 EGNS 081920Z 25017KT 9999 SCT020 BKN030 08/04 Q0982 NOSIG 19.6mph 8°C 4°C 7.0°C
08/01/23 18:50 EGNS 081850Z 25017KT 9999 SCT020 BKN028 08/04 Q0982 NOSIG 19.6mph 8°C 4°C 7.0°C
08/01/23 18:20 EGNS 081820Z 25016KT 9999 SCT022 BKN030 08/04 Q0981 NOSIG 18.4mph 8°C 4°C 7.0°C
08/01/23 17:20 EGNS 081720Z 25020KT 9999 FEW022 BKN040 08/04 Q0981 NOSIG 23.0mph 8°C 4°C 7.0°C
08/01/23 16:50 EGNS 081650Z 24021KT 9999 FEW022 BKN030 08/04 Q0981 NOSIG 24.2mph 8°C 4°C 7.0°C
08/01/23 16:20 EGNS 081620Z 22019KT 9999 SCT025 08/04 Q0980 NOSIG 21.9mph 8°C 4°C 7.0°C
08/01/23 15:50 EGNS 081550Z 22017KT 9999 SCT025 SCT040 07/03 Q0981 NOSIG 19.6mph 7°C 3°C 5.7°C
08/01/23 15:20 EGNS 081520Z 22015KT 9999 -SHRA SCT025 BKN040 07/03 Q0981 NOSIG -SHRA 17.3mph 7°C 3°C 5.7°C
08/01/23 14:20 EGNS 081420Z 23018KT 9999 FEW025 SCT045 08/01 Q0981 TEMPO 6000 SHRA 20.7mph 8°C 1°C 6.1°C
08/01/23 13:50 EGNS 081350Z 23015KT 9999 FEW025 SCT045 08/02 Q0981 NOSIG 17.3mph 8°C 2°C 6.4°C
08/01/23 13:20 EGNS 081320Z 23016KT 9999 FEW025 08/03 Q0981 NOSIG 18.4mph 8°C 3°C 6.7°C
08/01/23 12:50 EGNS 081250Z 23015KT 9999 FEW025 08/03 Q0982 NOSIG 17.3mph 8°C 3°C 6.7°C
08/01/23 12:20 EGNS 081220Z 23016KT 9999 FEW025 09/03 Q0982 NOSIG 18.4mph 9°C 3°C 7.7°C
08/01/23 11:50 EGNS 081150Z 23017KT 9999 FEW020 08/03 Q0982 NOSIG 19.6mph 8°C 3°C 6.7°C
08/01/23 11:20 EGNS 081120Z 23018KT 9999 FEW022 SCT040 08/04 Q0982 NOSIG 20.7mph 8°C 4°C 7.0°C
08/01/23 10:50 EGNS 081050Z 21019KT 9999 FEW024 SCT045 08/04 Q0982 NOSIG 21.9mph 8°C 4°C 7.0°C
08/01/23 10:20 EGNS 081020Z 21019KT 9999 FEW024 08/04 Q0982 NOSIG 21.9mph 8°C 4°C 7.0°C
08/01/23 09:50 EGNS 080950Z 22019KT 9999 FEW024 09/03 Q0982 NOSIG 21.9mph 9°C 3°C 7.7°C
08/01/23 09:20 EGNS 080920Z 22022KT 9999 FEW024 09/02 Q0982 NOSIG 25.3mph 9°C 2°C 7.4°C
08/01/23 08:50 EGNS 080850Z 23017KT 9999 FEW024 09/03 Q0982 NOSIG 19.6mph 9°C 3°C 7.7°C
08/01/23 08:20 EGNS 080820Z 22021KT 9999 FEW024 09/02 Q0983 NOSIG 24.2mph 9°C 2°C 7.4°C
08/01/23 07:50 EGNS 080750Z 21023KT 9999 FEW023 09/04 Q0983 NOSIG 26.5mph 9°C 4°C 8.0°C
08/01/23 07:20 EGNS 080720Z 21022KT 9999 FEW025 09/04 Q0983 NOSIG 25.3mph 9°C 4°C 8.0°C
08/01/23 06:50 EGNS 080650Z 21021KT 9999 FEW030 09/03 Q0984 NOSIG 24.2mph 9°C 3°C 7.7°C
08/01/23 06:20 EGNS 080620Z 21021KT 9999 FEW028 09/04 Q0984 NOSIG 24.2mph 9°C 4°C 8.0°C
08/01/23 05:50 EGNS 080550Z 21019KT 9999 SCT026 09/04 Q0984 21.9mph 9°C 4°C 8.0°C
08/01/23 04:50 EGNS 080450Z 22018KT 9999 SCT026 BKN040 09/04 Q0985 20.7mph 9°C 4°C 8.0°C
08/01/23 03:50 EGNS 080350Z 23020KT 9999 SCT028 09/03 Q0985 23.0mph 9°C 3°C 7.7°C
08/01/23 02:50 EGNS 080250Z 23022KT 9999 SCT035 09/03 Q0985 25.3mph 9°C 3°C 7.7°C
08/01/23 01:50 EGNS 080150Z 23022KT 210V270 9999 OVC036 09/04 Q0985 25.3mph 9°C 4°C 8.0°C
07/01/23 23:50 EGNS 072350Z 23023KT 9999 FEW024 BKN040 10/04 Q0984 26.5mph 10°C 4°C 9.0°C
07/01/23 22:50 EGNS 072250Z 22025KT 9999 -SHRA FEW020 BKN030 10/06 Q0983 -SHRA 28.8mph 10°C 6°C 9.6°C
07/01/23 21:50 EGNS 072150Z 22026KT 9999 FEW020 10/06 Q0983 29.9mph 10°C 6°C 9.6°C
07/01/23 20:50 EGNS 072050Z 21024KT 9999 SCT020 10/06 Q0983 27.6mph 10°C 6°C 9.6°C
07/01/23 20:20 EGNS 072020Z 21029KT 190V250 9999 FEW020 10/06 Q0983 33.4mph 10°C 6°C 9.6°C
07/01/23 19:50 EGNS 071950Z 22029G39KT 9999 SCT022 10/06 Q0983 NOSIG 33.4mph 44.9mph 10°C 6°C 9.6°C
07/01/23 19:20 EGNS 071920Z 21031G42KT 9999 FEW020 09/06 Q0983 NOSIG 35.7mph 48.3mph 9°C 6°C 8.6°C
07/01/23 18:50 EGNS 071850Z 21030G40KT 180V240 9999 FEW020 09/06 Q0982 NOSIG 34.5mph 46.0mph 9°C 6°C 8.6°C
07/01/23 18:20 EGNS 071820Z 21034G45KT 9999 SCT023 09/05 Q0983 NOSIG 39.1mph 51.8mph 9°C 5°C 8.3°C
07/01/23 17:50 EGNS 071750Z 20033G45KT 9999 FEW022 10/05 Q0983 NOSIG 38.0mph 51.8mph 10°C 5°C 9.3°C
07/01/23 17:20 EGNS 071720Z 21027G38KT 9999 FEW022 09/05 Q0983 NOSIG 31.1mph 43.7mph 9°C 5°C 8.3°C
07/01/23 16:50 EGNS 071650Z 21028G38KT 9999 FEW022 09/04 Q0983 NOSIG 32.2mph 43.7mph 9°C 4°C 8.0°C
07/01/23 16:20 EGNS 071620Z 20028KT 9999 FEW022 09/05 Q0984 NOSIG 32.2mph 9°C 5°C 8.3°C
07/01/23 15:50 EGNS 071550Z 21027KT 9999 FEW025 09/04 Q0984 NOSIG 31.1mph 9°C 4°C 8.0°C
07/01/23 15:20 EGNS 071520Z 20027G37KT 9999 FEW020 09/05 Q0984 NOSIG 31.1mph 42.6mph 9°C 5°C 8.3°C
07/01/23 14:50 EGNS 071450Z 21024KT 9999 FEW018CB 09/06 Q0984 NOSIG 27.6mph 9°C 6°C 8.6°C
07/01/23 14:20 EGNS 071420Z 21024G34KT 9999 FEW018CB 09/05 Q0985 NOSIG 27.6mph 39.1mph 9°C 5°C 8.3°C
07/01/23 13:50 EGNS 071350Z 22025KT 9999 FEW020 09/06 Q0985 NOSIG 28.8mph 9°C 6°C 8.6°C
07/01/23 12:50 EGNS 071250Z 19024KT 9999 FEW020 10/07 Q0986 NOSIG 27.6mph 10°C 7°C 10.0°C
07/01/23 12:20 EGNS 071220Z 20019KT 9999 FEW020 10/07 Q0987 TEMPO 6000 SHRA BKN014 21.9mph 10°C 7°C 10.0°C
07/01/23 11:50 EGNS 071150Z 20023KT 9999 FEW018 10/05 Q0988 TEMPO 6000 SHRA BKN014 26.5mph 10°C 5°C 9.3°C
07/01/23 11:20 EGNS 071120Z 21022KT 9999 FEW018 10/07 Q0988 NOSIG 25.3mph 10°C 7°C 10.0°C
07/01/23 10:50 EGNS 071050Z 22022KT 9999 FEW018 09/06 Q0988 NOSIG 25.3mph 9°C 6°C 8.6°C
07/01/23 10:20 EGNS 071020Z 21021KT 9999 FEW020 09/06 Q0988 NOSIG 24.2mph 9°C 6°C 8.6°C
07/01/23 09:50 EGNS 070950Z 21019KT 9999 FEW018 10/07 Q0988 NOSIG 21.9mph 10°C 7°C 10.0°C
07/01/23 09:20 EGNS 070920Z 19013KT 9999 FEW010 09/08 Q0988 NOSIG 15.0mph 9°C 8°C 9.4°C
07/01/23 08:50 EGNS 070850Z 18014KT 9999 FEW012 09/07 Q0988 NOSIG 16.1mph 9°C 7°C 9.0°C
07/01/23 08:20 EGNS 070820Z 18012KT 9999 FEW010 OVC045 09/07 Q0988 NOSIG 13.8mph 9°C 7°C 9.0°C
07/01/23 07:50 EGNS 070750Z 19010KT 9999 -RA FEW008 SCT015 OVC038 09/09 Q0989 BECMG NSW -RA 11.5mph 9°C 9°C 9.8°C
07/01/23 07:20 EGNS 070720Z 18007KT 9999 -RA FEW008 SCT018 OVC040 09/09 Q0989 NOSIG -RA 8.1mph 9°C 9°C 9.8°C
07/01/23 06:20 EGNS 070620Z 25004KT 9999 -RA FEW010 SCT022 OVC040 09/08 Q0990 TEMPO 8000 BKN010 -RA 4.6mph 9°C 8°C 9.4°C
07/01/23 05:50 EGNS 070550Z 23005KT 9999 FEW008 SCT020 OVC032 09/08 Q0990 TEMPO 8000 BKN010 5.8mph 9°C 8°C 9.4°C
07/01/23 05:20 EGNS 070520Z 24013G23KT 6000 RA FEW006 SCT018 OVC023 09/08 Q0990 TEMPO BKN006 RA 15.0mph 26.5mph 9°C 8°C 9.4°C
07/01/23 04:50 EGNS 070450Z 19016KT 6000 RA SCT006 BKN008 OVC018 10/10 Q0990 RA 18.4mph 10°C 10°C 11.3°C
07/01/23 03:50 EGNS 070350Z 21018KT 8000 RA FEW008 BKN012 OVC026 10/10 Q0992 RA 20.7mph 10°C 10°C 11.3°C
07/01/23 02:50 EGNS 070250Z 21021KT 9000 RA SCT009 BKN018 11/10 Q0993 RA 24.2mph 11°C 10°C 12.3°C
07/01/23 01:50 EGNS 070150Z 21022KT 6000 RA FEW006 BKN009 OVC025 11/10 Q0993 RA 25.3mph 11°C 10°C 12.3°C
07/01/23 00:50 EGNS 070050Z 19018KT 7000 RA BKN007 OVC017 10/10 Q0994 RA 20.7mph 10°C 10°C 11.3°C
06/01/23 23:50 EGNS 062350Z 20021G31KT 4000 +RA SCT007 BKN012 OVC020 11/10 Q0995 +RA 24.2mph 35.7mph 11°C 10°C 12.3°C
06/01/23 22:50 EGNS 062250Z 19018KT 9999 -RA SCT010 BKN020 11/10 Q0996 -RA 20.7mph 11°C 10°C 12.3°C
06/01/23 21:50 EGNS 062150Z 19019KT 9999 -RA FEW006 BKN010 11/10 Q0997 -RA 21.9mph 11°C 10°C 12.3°C
06/01/23 20:50 EGNS 062050Z 17014KT 9999 FEW006 SCT016 11/10 Q0998 NOSIG 16.1mph 11°C 10°C 12.3°C
06/01/23 20:20 EGNS 062020Z 16019KT 9999 FEW005 SCT007 OVC012 10/10 Q0999 TEMPO 8000 -RA 21.9mph 10°C 10°C 11.3°C
06/01/23 19:50 EGNS 061950Z 16015KT 8000 -RA FEW004 SCT006 BKN008 10/10 Q0999 NOSIG -RA 17.3mph 10°C 10°C 11.3°C